الصفحة الرئيسية
METAR-TAF:

METAR-TAF

مطار :

أباكان, روسيا

دائرة عرض: 53-45N, خط طول: 091-24E, ارتفاع: 245 متر

مراقبة الطقس الحالي

تاريخ ووقت الإصدار 24 دقيقة قبل الساعة 22:30UTC
ريح 2 عقدة من الغرب
درجة الحرارة 9°درجة مئوية
الرطوبة 93%
ضغط 1018 hPa
الرؤية: 0150 متر
ضباب

METAR: UNAA 152230Z 26001MPS 0150 R02/M0300N FG VV001 09/08 Q1018 R02/090065 NOSIG RMK QBB050 QFE741

زمن: 05:54 (22:54 UTC)

توقعات

تاريخ ووقت الإصدار 53 دقيقة قبل الساعة 22:01UTC
التوقعات صالحة من15 الساعة 22 UTC إلى 16 الساعة 21 UTC
ريح 2 عقدةمن اتجاهات متغيرة
الرؤية: 0300 متر
على ارتفاع 200 قدم
ضباب
مؤقت
من 15 الساعة 22 UTC إلى 16 الساعة 02 UTC
الرؤية: 1000 متر
غشاء
من 16 الساعة 0200 UTC
ريح 6 عقدة من الشرق تتزايد حتى 16 عقدة
الرؤية 10 كم أو أكثر
الغيوم لا تقل 1500 م ولا وجود لمزنة ركامية السحاب الأسود

TAF: UNAA 152201Z 1522/1621 VRB01MPS 0300 FG VV002 TEMPO 1522/1602 1000 BR FM160200 09003G08MPS CAVOK

أرصاد الطقس والتوقعات من أكثر من 4000 مطار (تقارير الطقس للمطار METAR والتنبؤ بالطقس بالمطارTAF).

المحطات المتاحة هي النقط الصفراء والحمراء على الخريطة.

حرك المؤشر فوق النقطة لمعرفة اسم المحطة.

ثم انقر لمعرفة أرصاد وتوقعات الطقس.

لتغيير الخارطة: اضغط على الأزرار الخضراء مع رمز الصليب الأسود للتكبير. على الزر الأخضر مع شرطة للتصغير، أو على الأسهم الخضراء للخرائط المجاورة.


METAR-TAF: